Time;durP1;ratioP1;P1;durP2;ratioP2;P2;SDS_P1;SDS_P2;PMS_P1;PMS_P2;Temp;Humidity;BMP_temperature;BMP_pressure;BME280_temperature;BME280_humidity;BME280_pressure;Samples;Min_cycle;Max_cycle;Signal;HPM_P1;HPM_P2
2023/08/05 00:01:13;;;;;;;9.82;6.63;;;;;;;;;;5128094;28;20031;-71
2023/08/05 00:03:40;;;;;;;10.88;5.30;;;;;;;;;;5128362;28;20397;-71
2023/08/05 00:06:06;;;;;;;8.25;5.28;;;;;;;;;;5130110;27;20478;-70
2023/08/05 00:08:32;;;;;;;9.52;5.50;;;;;;;;;;5128450;28;20333;-71
2023/08/05 00:10:58;;;;;;;8.82;5.53;;;;;;;;;;5129642;28;20027;-71
2023/08/05 00:13:24;;;;;;;9.57;5.45;;;;;;;;;;5129580;27;20027;-71
2023/08/05 00:15:51;;;;;;;10.65;4.63;;;;;;;;;;5129542;27;20103;-71
2023/08/05 00:18:17;;;;;;;9.88;5.57;;;;;;;;;;5132220;27;20114;-71
2023/08/05 00:20:42;;;;;;;8.85;5.40;;;;;;;;;;5133387;27;20497;-71
2023/08/05 00:23:08;;;;;;;11.23;5.65;;;;;;;;;;5133392;27;20028;-71
2023/08/05 00:25:34;;;;;;;8.43;5.03;;;;;;;;;;5133360;27;20126;-70
2023/08/05 00:28:00;;;;;;;11.23;5.25;;;;;;;;;;5133469;27;20603;-70
2023/08/05 00:30:26;;;;;;;9.38;5.43;;;;;;;;;;5134211;27;20027;-70
2023/08/05 00:32:52;;;;;;;8.52;4.97;;;;;;;;;;5133416;27;20034;-71
2023/08/05 00:35:18;;;;;;;11.70;4.85;;;;;;;;;;5145334;27;20050;-71
2023/08/05 00:37:44;;;;;;;9.05;4.53;;;;;;;;;;5153645;27;20036;-70
2023/08/05 00:40:11;;;;;;;7.85;4.75;;;;;;;;;;5153989;27;20114;-71
2023/08/05 00:42:37;;;;;;;6.95;3.75;;;;;;;;;;5153731;27;20031;-71
2023/08/05 00:45:03;;;;;;;8.15;4.80;;;;;;;;;;5154565;27;20054;-70
2023/08/05 00:47:30;;;;;;;8.93;4.50;;;;;;;;;;5153553;27;20159;-70
2023/08/05 00:50:00;;;;;;;9.40;4.55;;;;;;;;;;5153518;27;20030;-71
2023/08/05 00:52:26;;;;;;;;;;;;;;;;;;5154134;27;20022;-71
2023/08/05 00:54:52;;;;;;;8.88;4.40;;;;;;;;;;5153144;27;19911;-71
2023/08/05 00:57:19;;;;;;;11.82;4.45;;;;;;;;;;5153683;27;20023;-71
2023/08/05 00:59:45;;;;;;;9.10;4.75;;;;;;;;;;5153268;27;20118;-71
2023/08/05 01:02:11;;;;;;;7.28;3.60;;;;;;;;;;5153623;27;20106;-71
2023/08/05 01:04:37;;;;;;;10.20;4.25;;;;;;;;;;5153593;27;20102;-70
2023/08/05 01:07:04;;;;;;;10.05;4.95;;;;;;;;;;5153521;27;20179;-71
2023/08/05 01:09:30;;;;;;;8.68;4.55;;;;;;;;;;5153554;27;20029;-70
2023/08/05 01:11:56;;;;;;;7.78;4.53;;;;;;;;;;5152541;27;20034;-71
2023/08/05 01:14:22;;;;;;;10.93;4.35;;;;;;;;;;5153726;27;20058;-71
2023/08/05 01:16:48;;;;;;;10.23;3.50;;;;;;;;;;5153360;27;20030;-70
2023/08/05 01:19:20;;;;;;;6.90;3.70;;;;;;;;;;5153013;27;20026;-70
2023/08/05 01:21:56;;;;;;;6.03;3.00;;;;;;;;;;5153112;27;20037;-71
2023/08/05 01:24:30;;;;;;;4.90;2.72;;;;;;;;;;5153079;27;20018;-71
2023/08/05 01:26:57;;;;;;;5.72;2.55;;;;;;;;;;5152047;27;20026;-71
2023/08/05 01:29:23;;;;;;;6.18;2.92;;;;;;;;;;5153014;27;20083;-70
2023/08/05 01:31:50;;;;;;;6.05;2.90;;;;;;;;;;5151330;27;20567;-70
2023/08/05 01:34:16;;;;;;;5.75;3.10;;;;;;;;;;5152487;27;20119;-70
2023/08/05 01:36:42;;;;;;;5.28;2.83;;;;;;;;;;5153105;27;20023;-71
2023/08/05 01:39:08;;;;;;;7.47;3.40;;;;;;;;;;5152722;27;20033;-71
2023/08/05 01:41:34;;;;;;;5.10;2.22;;;;;;;;;;5152465;27;20033;-71
2023/08/05 01:44:00;;;;;;;5.03;2.50;;;;;;;;;;5153437;27;20030;-71
2023/08/05 01:46:26;;;;;;;5.00;2.88;;;;;;;;;;5152882;27;20023;-71
2023/08/05 01:48:52;;;;;;;8.07;3.17;;;;;;;;;;5151570;27;20022;-71
2023/08/05 01:51:18;;;;;;;6.20;3.53;;;;;;;;;;5152973;27;20023;-71
2023/08/05 01:53:44;;;;;;;6.03;3.55;;;;;;;;;;5152879;27;20019;-71
2023/08/05 01:56:10;;;;;;;8.90;3.65;;;;;;;;;;5152796;27;20456;-73
2023/08/05 01:58:36;;;;;;;7.55;3.63;;;;;;;;;;5152924;27;20075;-71
2023/08/05 02:01:02;;;;;;;9.45;3.40;;;;;;;;;;5152023;27;20037;-70
2023/08/05 02:03:28;;;;;;;6.75;3.60;;;;;;;;;;5152803;27;20022;-71
2023/08/05 02:05:54;;;;;;;8.88;3.95;;;;;;;;;;5152604;27;20590;-71
2023/08/05 02:08:20;;;;;;;7.20;3.75;;;;;;;;;;5151850;27;20022;-70
2023/08/05 02:10:48;;;;;;;9.35;3.75;;;;;;;;;;5152200;27;20026;-72
2023/08/05 02:13:15;;;;;;;8.38;3.72;;;;;;;;;;5152718;27;20019;-71
2023/08/05 02:15:41;;;;;;;9.00;4.20;;;;;;;;;;5151969;27;20039;-71
2023/08/05 02:18:08;;;;;;;7.88;3.30;;;;;;;;;;5152080;27;20568;-71
2023/08/05 02:20:35;;;;;;;6.85;3.47;;;;;;;;;;5152057;27;20031;-72
2023/08/05 02:23:01;;;;;;;9.15;3.17;;;;;;;;;;5151440;27;20019;-71
2023/08/05 02:25:27;;;;;;;9.32;3.83;;;;;;;;;;5152282;27;20034;-71
2023/08/05 02:27:53;;;;;;;9.60;3.75;;;;;;;;;;5151648;27;20503;-71
2023/08/05 02:30:19;;;;;;;5.70;3.47;;;;;;;;;;5151715;27;20023;-72
2023/08/05 02:32:45;;;;;;;8.10;4.28;;;;;;;;;;5151731;27;20071;-72
2023/08/05 02:35:11;;;;;;;6.00;3.60;;;;;;;;;;5151219;27;20043;-71
2023/08/05 02:37:37;;;;;;;7.95;3.20;;;;;;;;;;5151548;27;20023;-71
2023/08/05 02:40:03;;;;;;;7.18;3.40;;;;;;;;;;5150588;27;20463;-71
2023/08/05 02:42:29;;;;;;;7.20;3.58;;;;;;;;;;5151603;27;20027;-70
2023/08/05 02:44:55;;;;;;;7.20;3.65;;;;;;;;;;5151740;27;20438;-70
2023/08/05 02:47:21;;;;;;;6.80;4.03;;;;;;;;;;5151355;27;20030;-71
2023/08/05 02:49:47;;;;;;;8.35;3.75;;;;;;;;;;5152092;27;20031;-72
2023/08/05 02:52:13;;;;;;;8.43;3.78;;;;;;;;;;5151228;27;20030;-71
2023/08/05 02:54:39;;;;;;;7.80;3.35;;;;;;;;;;5151236;27;20058;-70
2023/08/05 02:57:05;;;;;;;6.40;3.35;;;;;;;;;;5149533;27;20194;-71
2023/08/05 02:59:31;;;;;;;5.65;3.25;;;;;;;;;;5151615;27;20052;-70
2023/08/05 03:01:58;;;;;;;5.65;3.40;;;;;;;;;;5150272;27;20516;-71
2023/08/05 03:04:24;;;;;;;6.72;3.13;;;;;;;;;;5151580;27;20533;-70
2023/08/05 03:06:50;;;;;;;9.23;3.88;;;;;;;;;;5150701;27;20027;-71
2023/08/05 03:09:16;;;;;;;7.43;3.67;;;;;;;;;;5150790;27;20167;-70
2023/08/05 03:11:42;;;;;;;10.10;3.90;;;;;;;;;;5151320;27;20029;-70
2023/08/05 03:14:08;;;;;;;9.43;3.92;;;;;;;;;;5150579;27;20039;-70
2023/08/05 03:16:34;;;;;;;8.80;3.47;;;;;;;;;;5150743;27;20026;-70
2023/08/05 03:19:00;;;;;;;10.43;3.35;;;;;;;;;;5150326;27;20134;-70
2023/08/05 03:21:26;;;;;;;7.88;3.55;;;;;;;;;;5151035;27;20022;-70
2023/08/05 03:23:52;;;;;;;8.32;3.90;;;;;;;;;;5151465;27;20031;-70
2023/08/05 03:26:18;;;;;;;9.07;3.92;;;;;;;;;;5151095;27;20955;-71
2023/08/05 03:28:44;;;;;;;7.22;3.55;;;;;;;;;;5149917;27;20491;-71
2023/08/05 03:31:10;;;;;;;6.53;2.90;;;;;;;;;;5150562;27;20041;-70
2023/08/05 03:33:36;;;;;;;5.80;3.25;;;;;;;;;;5150936;27;20026;-70
2023/08/05 03:36:02;;;;;;;7.28;3.72;;;;;;;;;;5151070;27;20061;-70
2023/08/05 03:38:30;;;;;;;9.23;4.20;;;;;;;;;;5149712;27;20546;-70
2023/08/05 03:40:56;;;;;;;7.93;4.25;;;;;;;;;;5150241;27;20029;-71
2023/08/05 03:43:22;;;;;;;8.52;3.60;;;;;;;;;;5148719;27;20051;-70
2023/08/05 03:45:51;;;;;;;8.88;4.25;;;;;;;;;;5150715;27;20506;-69
2023/08/05 03:48:17;;;;;;;6.40;3.17;;;;;;;;;;5150663;27;20015;-70
2023/08/05 03:50:43;;;;;;;9.55;3.90;;;;;;;;;;5152356;27;20018;-70
2023/08/05 03:53:09;;;;;;;9.90;4.57;;;;;;;;;;5154411;27;20165;-70
2023/08/05 03:55:35;;;;;;;7.63;4.75;;;;;;;;;;5154585;27;20511;-70
2023/08/05 03:58:01;;;;;;;8.63;4.60;;;;;;;;;;5154948;27;20019;-71
2023/08/05 04:00:28;;;;;;;7.65;3.95;;;;;;;;;;5154966;27;20027;-71
2023/08/05 04:02:54;;;;;;;7.85;4.53;;;;;;;;;;5155784;27;20037;-71
2023/08/05 04:05:20;;;;;;;14.07;4.68;;;;;;;;;;5155022;27;20030;-71
2023/08/05 04:07:47;;;;;;;8.50;3.97;;;;;;;;;;5155073;27;20023;-71
2023/08/05 04:10:13;;;;;;;6.72;4.22;;;;;;;;;;5154654;27;20052;-70
2023/08/05 04:12:39;;;;;;;7.03;4.25;;;;;;;;;;5154740;27;20018;-71
2023/08/05 04:15:07;;;;;;;8.80;4.03;;;;;;;;;;5152899;27;20039;-71
2023/08/05 04:17:33;;;;;;;12.02;4.85;;;;;;;;;;5153247;27;20106;-71
2023/08/05 04:20:00;;;;;;;8.63;3.88;;;;;;;;;;5153918;27;20026;-71
2023/08/05 04:22:27;;;;;;;7.88;4.75;;;;;;;;;;5154800;27;20072;-70
2023/08/05 04:24:53;;;;;;;7.25;3.67;;;;;;;;;;5154712;27;20027;-69
2023/08/05 04:27:21;;;;;;;5.88;3.72;;;;;;;;;;5154122;27;20026;-70
2023/08/05 04:29:47;;;;;;;8.07;4.47;;;;;;;;;;5154595;27;20023;-71
2023/08/05 04:32:15;;;;;;;9.20;4.50;;;;;;;;;;5155026;27;20029;-70
2023/08/05 04:34:41;;;;;;;9.60;4.53;;;;;;;;;;5153898;27;20089;-73
2023/08/05 04:37:20;;;;;;;9.95;4.72;;;;;;;;;;5154389;27;20051;-72
2023/08/05 04:39:46;;;;;;;8.43;4.80;;;;;;;;;;5154401;27;20513;-72
2023/08/05 04:42:12;;;;;;;8.02;4.60;;;;;;;;;;5153588;27;20076;-71
2023/08/05 04:44:42;;;;;;;7.95;4.30;;;;;;;;;;5153889;27;20022;-71
2023/08/05 04:47:08;;;;;;;6.93;4.03;;;;;;;;;;5152869;27;20584;-72
2023/08/05 04:49:35;;;;;;;9.23;5.13;;;;;;;;;;5153840;27;20395;-72
2023/08/05 04:52:05;;;;;;;14.55;5.75;;;;;;;;;;5153954;27;20471;-72
2023/08/05 04:54:31;;;;;;;9.85;5.13;;;;;;;;;;5153876;27;20149;-70
2023/08/05 04:56:57;;;;;;;7.95;4.22;;;;;;;;;;5153981;27;20106;-71
2023/08/05 04:59:23;;;;;;;10.45;5.28;;;;;;;;;;5153684;27;20105;-71
2023/08/05 05:01:49;;;;;;;10.23;5.20;;;;;;;;;;5152278;27;20680;-72
2023/08/05 05:04:15;;;;;;;9.63;5.80;;;;;;;;;;5153924;27;20023;-70
2023/08/05 05:06:41;;;;;;;10.98;6.35;;;;;;;;;;5152012;27;20027;-70
2023/08/05 05:09:08;;;;;;;13.07;6.35;;;;;;;;;;5153426;27;20030;-70
2023/08/05 05:11:34;;;;;;;11.40;6.70;;;;;;;;;;5153400;27;20023;-70
2023/08/05 05:14:00;;;;;;;9.45;4.70;;;;;;;;;;5153417;27;20464;-69
2023/08/05 05:16:26;;;;;;;8.98;4.63;;;;;;;;;;5153118;27;20054;-69
2023/08/05 05:18:52;;;;;;;7.93;5.68;;;;;;;;;;5152871;27;20050;-70
2023/08/05 05:21:18;;;;;;;8.77;6.68;;;;;;;;;;5153352;27;20022;-70
2023/08/05 05:23:44;;;;;;;9.77;5.75;;;;;;;;;;5152771;27;20491;-71
2023/08/05 05:26:10;;;;;;;8.02;4.72;;;;;;;;;;5153224;27;20070;-70
2023/08/05 05:28:36;;;;;;;10.60;6.32;;;;;;;;;;5153195;27;20018;-70
2023/08/05 05:31:03;;;;;;;8.65;5.30;;;;;;;;;;5152914;27;20027;-69
2023/08/05 05:33:29;;;;;;;8.73;5.05;;;;;;;;;;5152582;27;20027;-69
2023/08/05 05:35:54;;;;;;;13.52;7.05;;;;;;;;;;5135359;27;20055;-71
2023/08/05 05:38:20;;;;;;;10.23;5.20;;;;;;;;;;5131984;27;20027;-69
2023/08/05 05:40:46;;;;;;;6.97;4.95;;;;;;;;;;5132086;27;20023;-70
2023/08/05 05:43:12;;;;;;;11.73;6.65;;;;;;;;;;5131829;27;20031;-70
2023/08/05 05:45:39;;;;;;;7.72;5.03;;;;;;;;;;5131869;27;20098;-70
2023/08/05 05:48:06;;;;;;;10.05;4.63;;;;;;;;;;5132010;27;20023;-70
2023/08/05 05:50:32;;;;;;;11.60;7.65;;;;;;;;;;5130778;27;20114;-70
2023/08/05 05:52:58;;;;;;;11.90;7.38;;;;;;;;;;5131316;27;20133;-70
2023/08/05 05:55:24;;;;;;;11.48;7.20;;;;;;;;;;5131900;27;20473;-70
2023/08/05 05:57:50;;;;;;;13.75;9.18;;;;;;;;;;5131867;27;20558;-71
2023/08/05 06:00:16;;;;;;;10.73;7.60;;;;;;;;;;5131628;27;20058;-70
2023/08/05 06:02:42;;;;;;;12.75;6.45;;;;;;;;;;5132151;27;20103;-70
2023/08/05 06:05:09;;;;;;;9.18;5.95;;;;;;;;;;5131206;27;20062;-71
2023/08/05 06:07:35;;;;;;;9.82;5.90;;;;;;;;;;5131373;27;20023;-70
2023/08/05 06:10:01;;;;;;;12.15;8.80;;;;;;;;;;5131248;27;20137;-70
2023/08/05 06:12:32;;;;;;;15.63;9.07;;;;;;;;;;5131509;27;20023;-69
2023/08/05 06:14:59;;;;;;;14.43;8.35;;;;;;;;;;5130232;27;20034;-70
2023/08/05 06:17:25;;;;;;;12.30;8.90;;;;;;;;;;5132394;27;20043;-70
2023/08/05 06:19:51;;;;;;;12.00;7.88;;;;;;;;;;5132311;27;20059;-70
2023/08/05 06:22:17;;;;;;;10.43;7.68;;;;;;;;;;5132614;27;20044;-71
2023/08/05 06:24:43;;;;;;;10.57;5.63;;;;;;;;;;5132655;27;20101;-71
2023/08/05 06:27:09;;;;;;;13.38;7.00;;;;;;;;;;5132512;27;20034;-71
2023/08/05 06:29:35;;;;;;;9.18;6.68;;;;;;;;;;5132039;27;20131;-69
2023/08/05 06:32:02;;;;;;;7.65;4.68;;;;;;;;;;5132077;27;20052;-69
2023/08/05 06:34:28;;;;;;;10.45;4.60;;;;;;;;;;5136820;27;20051;-69
2023/08/05 06:36:54;;;;;;;14.40;7.82;;;;;;;;;;5151928;27;20433;-69
2023/08/05 06:39:21;;;;;;;10.20;5.28;;;;;;;;;;5151993;27;20097;-69
2023/08/05 06:41:47;;;;;;;8.40;5.30;;;;;;;;;;5152076;27;20106;-69
2023/08/05 06:44:13;;;;;;;12.05;4.40;;;;;;;;;;5151350;27;20026;-69
2023/08/05 06:46:39;;;;;;;7.28;4.20;;;;;;;;;;5151793;27;20030;-69
2023/08/05 06:49:05;;;;;;;8.07;4.97;;;;;;;;;;5152102;27;20062;-71
2023/08/05 06:51:32;;;;;;;7.82;4.97;;;;;;;;;;5151178;27;20023;-69
2023/08/05 06:53:58;;;;;;;8.73;5.20;;;;;;;;;;5151523;27;20034;-69
2023/08/05 06:56:24;;;;;;;9.25;4.60;;;;;;;;;;5150500;27;20034;-69
2023/08/05 06:58:50;;;;;;;9.23;5.57;;;;;;;;;;5151051;27;20026;-68
2023/08/05 07:01:16;;;;;;;9.05;4.88;;;;;;;;;;5150850;27;20027;-69
2023/08/05 07:03:44;;;;;;;9.15;5.28;;;;;;;;;;5151084;27;20019;-69
2023/08/05 07:06:10;;;;;;;8.65;5.00;;;;;;;;;;5150857;27;20114;-71
2023/08/05 07:08:36;;;;;;;8.68;6.20;;;;;;;;;;5150975;27;20310;-69
2023/08/05 07:11:02;;;;;;;8.10;4.70;;;;;;;;;;5150992;27;20146;-69
2023/08/05 07:13:28;;;;;;;9.35;4.07;;;;;;;;;;5151345;27;20018;-69
2023/08/05 07:16:00;;;;;;;7.10;4.30;;;;;;;;;;5150040;27;20790;-70
2023/08/05 07:18:27;;;;;;;8.45;4.03;;;;;;;;;;5151142;27;20018;-69
2023/08/05 07:20:53;;;;;;;7.97;5.20;;;;;;;;;;5150730;27;20087;-70
2023/08/05 07:23:19;;;;;;;9.23;5.28;;;;;;;;;;5150728;27;20504;-69
2023/08/05 07:25:45;;;;;;;9.23;3.88;;;;;;;;;;5151253;27;20044;-69
2023/08/05 07:28:11;;;;;;;7.28;4.47;;;;;;;;;;5151934;27;20060;-69
2023/08/05 07:30:37;;;;;;;9.57;5.40;;;;;;;;;;5151889;27;20037;-70
2023/08/05 07:33:05;;;;;;;6.70;4.15;;;;;;;;;;5151358;27;20503;-69
2023/08/05 07:35:33;;;;;;;6.97;3.75;;;;;;;;;;5149854;27;20078;-68
2023/08/05 07:38:03;;;;;;;10.52;6.93;;;;;;;;;;5151814;27;20102;-69
2023/08/05 07:40:30;;;;;;;10.30;6.20;;;;;;;;;;5151324;27;20083;-69
2023/08/05 07:42:56;;;;;;;11.27;5.75;;;;;;;;;;5151615;27;20027;-69
2023/08/05 07:45:22;;;;;;;12.77;6.20;;;;;;;;;;5152046;27;20027;-70
2023/08/05 07:47:48;;;;;;;7.55;4.45;;;;;;;;;;5151820;27;20023;-70
2023/08/05 07:50:16;;;;;;;5.22;3.03;;;;;;;;;;5151636;27;20026;-69
2023/08/05 07:52:43;;;;;;;6.10;3.78;;;;;;;;;;5151663;27;20014;-69
2023/08/05 07:55:09;;;;;;;7.65;4.13;;;;;;;;;;5151211;27;20039;-69
2023/08/05 07:57:35;;;;;;;8.30;4.05;;;;;;;;;;5151943;27;20041;-68
2023/08/05 08:00:01;;;;;;;6.53;3.60;;;;;;;;;;5151726;27;20533;-70
2023/08/05 08:02:27;;;;;;;7.50;3.10;;;;;;;;;;5151952;27;20190;-68
2023/08/05 08:04:54;;;;;;;7.80;3.38;;;;;;;;;;5149625;27;20040;-70
2023/08/05 08:07:23;;;;;;;7.28;3.53;;;;;;;;;;5150684;27;20026;-68
2023/08/05 08:09:49;;;;;;;6.07;2.67;;;;;;;;;;5148465;27;20019;-68
2023/08/05 08:12:15;;;;;;;4.63;2.58;;;;;;;;;;5149615;27;20373;-68
2023/08/05 08:14:41;;;;;;;5.47;2.50;;;;;;;;;;5151057;27;20039;-68
2023/08/05 08:17:07;;;;;;;6.57;3.30;;;;;;;;;;5151661;27;20027;-68
2023/08/05 08:19:33;;;;;;;7.82;2.65;;;;;;;;;;5151438;27;20029;-68
2023/08/05 08:22:00;;;;;;;8.77;3.83;;;;;;;;;;5150267;27;20034;-69
2023/08/05 08:24:26;;;;;;;6.20;3.53;;;;;;;;;;5149585;27;20031;-70
2023/08/05 08:26:52;;;;;;;5.00;2.78;;;;;;;;;;5149005;27;20034;-69
2023/08/05 08:29:18;;;;;;;4.85;2.65;;;;;;;;;;5148988;27;20050;-70
2023/08/05 08:31:44;;;;;;;4.75;2.55;;;;;;;;;;5148857;27;20023;-70
2023/08/05 08:34:10;;;;;;;5.78;3.20;;;;;;;;;;5148676;27;20026;-70
2023/08/05 08:36:36;;;;;;;5.25;2.75;;;;;;;;;;5148712;27;20083;-68
2023/08/05 08:39:02;;;;;;;5.07;2.20;;;;;;;;;;5153457;27;20029;-70
2023/08/05 08:41:29;;;;;;;5.70;2.67;;;;;;;;;;5153994;27;20018;-69
2023/08/05 08:43:56;;;;;;;4.20;1.95;;;;;;;;;;5153708;27;20026;-69
2023/08/05 08:46:22;;;;;;;4.85;2.42;;;;;;;;;;5153945;27;20025;-69
2023/08/05 08:48:49;;;;;;;3.42;1.83;;;;;;;;;;5153899;27;20022;-68
2023/08/05 08:51:16;;;;;;;3.95;1.80;;;;;;;;;;5154148;27;20019;-69
2023/08/05 08:53:46;;;;;;;3.28;1.95;;;;;;;;;;5153288;27;20027;-69
2023/08/05 08:56:12;;;;;;;4.25;2.58;;;;;;;;;;5153935;27;20084;-68
2023/08/05 08:58:38;;;;;;;6.72;3.53;;;;;;;;;;5153500;27;20034;-69
2023/08/05 09:01:05;;;;;;;4.28;2.22;;;;;;;;;;5152808;27;20035;-69
2023/08/05 09:03:33;;;;;;;3.53;1.90;;;;;;;;;;5153703;27;20027;-69
2023/08/05 09:06:00;;;;;;;4.97;2.97;;;;;;;;;;5153932;27;20027;-69
2023/08/05 09:08:26;;;;;;;5.25;2.72;;;;;;;;;;5153740;27;20027;-71
2023/08/05 09:10:52;;;;;;;7.13;2.53;;;;;;;;;;5152807;27;20023;-69
2023/08/05 09:13:19;;;;;;;5.93;2.67;;;;;;;;;;5152700;27;20031;-70
2023/08/05 09:15:46;;;;;;;3.88;2.33;;;;;;;;;;5153539;27;20030;-70
2023/08/05 09:18:12;;;;;;;4.55;2.42;;;;;;;;;;5153412;27;20118;-70
2023/08/05 09:20:38;;;;;;;4.75;3.03;;;;;;;;;;5153399;27;20051;-71
2023/08/05 09:23:05;;;;;;;6.30;3.00;;;;;;;;;;5153359;27;20075;-70
2023/08/05 09:25:32;;;;;;;3.65;2.35;;;;;;;;;;5153296;27;20022;-69
2023/08/05 09:28:04;;;;;;;5.53;2.63;;;;;;;;;;5153601;27;20023;-71
2023/08/05 09:30:32;;;;;;;3.78;2.20;;;;;;;;;;5153178;27;20109;-70
2023/08/05 09:32:59;;;;;;;4.38;2.58;;;;;;;;;;5152852;27;20022;-69
2023/08/05 09:35:26;;;;;;;4.25;2.65;;;;;;;;;;5152970;27;20099;-71
2023/08/05 09:37:53;;;;;;;3.05;1.88;;;;;;;;;;5152628;27;20026;-71
2023/08/05 09:40:25;;;;;;;3.55;2.03;;;;;;;;;;5152967;27;20392;-70
2023/08/05 09:42:57;;;;;;;4.95;2.80;;;;;;;;;;5152789;27;20023;-70
2023/08/05 09:45:25;;;;;;;3.92;2.28;;;;;;;;;;5152949;27;20018;-69
2023/08/05 09:48:00;;;;;;;3.75;2.33;;;;;;;;;;5151971;27;20019;-71
2023/08/05 09:50:26;;;;;;;3.95;2.28;;;;;;;;;;5153376;27;20018;-70
2023/08/05 09:52:56;;;;;;;3.95;2.03;;;;;;;;;;5152584;27;20105;-69
2023/08/05 09:55:22;;;;;;;4.82;1.90;;;;;;;;;;5152515;27;20080;-69
2023/08/05 09:57:48;;;;;;;9.48;3.40;;;;;;;;;;5152668;27;20030;-69
2023/08/05 10:00:14;;;;;;;5.25;2.92;;;;;;;;;;5150516;27;20142;-70
2023/08/05 10:02:41;;;;;;;4.55;2.35;;;;;;;;;;5152498;27;20106;-71
2023/08/05 10:05:11;;;;;;;5.13;1.90;;;;;;;;;;5152624;27;20026;-71
2023/08/05 10:07:41;;;;;;;3.45;1.65;;;;;;;;;;5152496;27;20030;-70
2023/08/05 10:10:09;;;;;;;3.97;2.05;;;;;;;;;;5151710;27;20033;-70
2023/08/05 10:12:38;;;;;;;3.47;2.05;;;;;;;;;;5152454;27;20055;-71
2023/08/05 10:15:05;;;;;;;4.32;2.30;;;;;;;;;;5152082;27;20424;-71
2023/08/05 10:17:31;;;;;;;4.32;2.15;;;;;;;;;;5151610;27;20477;-68
2023/08/05 10:20:00;;;;;;;4.75;2.00;;;;;;;;;;5151981;27;20034;-68
2023/08/05 10:22:27;;;;;;;5.47;2.40;;;;;;;;;;5152674;27;20027;-68
2023/08/05 10:24:54;;;;;;;4.43;2.17;;;;;;;;;;5151622;27;20034;-67
2023/08/05 10:27:37;;;;;;;4.55;2.90;;;;;;;;;;5152136;27;20019;-69
2023/08/05 10:30:07;;;;;;;5.00;2.10;;;;;;;;;;5151809;27;20519;-69
2023/08/05 10:32:35;;;;;;;;;;;;;;;;;;5152048;27;20030;-70
2023/08/05 10:35:20;;;;;;;5.10;2.67;;;;;;;;;;5151440;27;20420;-73
2023/08/05 10:37:49;;;;;;;5.30;2.50;;;;;;;;;;5152020;27;20069;-71
2023/08/05 10:40:35;;;;;;;6.38;3.47;;;;;;;;;;5151811;27;20035;-73
2023/08/05 10:43:01;;;;;;;5.10;2.30;;;;;;;;;;5151076;27;20106;-70
2023/08/05 10:45:27;;;;;;;7.43;3.10;;;;;;;;;;5151594;27;20425;-71
2023/08/05 10:47:53;;;;;;;4.97;3.60;;;;;;;;;;5149974;27;20030;-71
2023/08/05 10:50:19;;;;;;;7.45;3.80;;;;;;;;;;5151677;27;20391;-69
2023/08/05 10:52:45;;;;;;;5.15;2.50;;;;;;;;;;5152325;27;20029;-75
2023/08/05 10:55:13;;;;;;;5.90;2.60;;;;;;;;;;5151726;27;20381;-72
2023/08/05 10:57:38;;;;;;;4.28;2.80;;;;;;;;;;5151200;27;20034;-72
2023/08/05 11:00:07;;;;;;;6.15;2.70;;;;;;;;;;5151177;27;20022;-73
2023/08/05 11:02:34;;;;;;;5.38;2.13;;;;;;;;;;5151715;27;20014;-73
2023/08/05 11:05:09;;;;;;;4.70;2.47;;;;;;;;;;5151667;27;20106;-73
2023/08/05 11:07:38;;;;;;;4.93;2.92;;;;;;;;;;5151520;27;20026;-73
2023/08/05 11:10:05;;;;;;;5.80;2.97;;;;;;;;;;5151680;27;20023;-74
2023/08/05 11:12:31;;;;;;;5.55;2.67;;;;;;;;;;5151408;27;20504;-74
2023/08/05 11:14:59;;;;;;;5.55;3.65;;;;;;;;;;5150743;27;20033;-74
2023/08/05 11:17:25;;;;;;;7.03;3.55;;;;;;;;;;5151208;27;20126;-75
2023/08/05 11:19:56;;;;;;;4.00;2.83;;;;;;;;;;5150005;27;20384;-74
2023/08/05 11:22:26;;;;;;;6.15;4.00;;;;;;;;;;5152164;27;20050;-76
2023/08/05 11:24:52;;;;;;;;;;;;;;;;;;5151600;27;20048;-73
2023/08/05 11:27:18;;;;;;;5.28;3.10;;;;;;;;;;5151628;27;19903;-73
2023/08/05 11:29:44;;;;;;;4.43;3.00;;;;;;;;;;5151438;27;20392;-74
2023/08/05 11:32:10;;;;;;;6.60;3.30;;;;;;;;;;5151212;27;20069;-75
2023/08/05 11:34:36;;;;;;;6.22;3.10;;;;;;;;;;5150446;27;20063;-75
2023/08/05 11:37:02;;;;;;;5.00;3.08;;;;;;;;;;5150179;27;20030;-73
2023/08/05 11:39:28;;;;;;;9.32;3.22;;;;;;;;;;5151202;27;20030;-75
2023/08/05 11:41:54;;;;;;;6.25;2.33;;;;;;;;;;5152208;27;20025;-74
2023/08/05 11:44:20;;;;;;;5.30;2.72;;;;;;;;;;5151322;27;20542;-74
2023/08/05 11:46:47;;;;;;;3.65;2.25;;;;;;;;;;5149490;27;20071;-75
2023/08/05 11:49:14;;;;;;;3.47;1.85;;;;;;;;;;5151156;27;20093;-74
2023/08/05 11:51:50;;;;;;;3.40;2.17;;;;;;;;;;5151738;27;20026;-75
2023/08/05 11:54:28;;;;;;;4.95;2.80;;;;;;;;;;5150948;27;20027;-74
2023/08/05 11:56:54;;;;;;;6.25;2.97;;;;;;;;;;5151567;27;20095;-73
2023/08/05 11:59:39;;;;;;;3.70;2.47;;;;;;;;;;5151201;27;20026;-72
2023/08/05 12:02:05;;;;;;;5.95;3.28;;;;;;;;;;5150961;27;20022;-76
2023/08/05 12:04:31;;;;;;;10.73;4.85;;;;;;;;;;5151984;27;20030;-75
2023/08/05 12:06:57;;;;;;;6.68;4.82;;;;;;;;;;5151340;27;20081;-75
2023/08/05 12:09:24;;;;;;;8.13;4.43;;;;;;;;;;5150906;27;20654;-73
2023/08/05 12:11:56;;;;;;;7.55;3.35;;;;;;;;;;5152389;27;20050;-73
2023/08/05 12:14:22;;;;;;;6.38;3.50;;;;;;;;;;5153808;27;20031;-73
2023/08/05 12:16:49;;;;;;;5.95;4.03;;;;;;;;;;5154512;27;20407;-74
2023/08/05 12:19:15;;;;;;;7.90;3.70;;;;;;;;;;5152428;27;20019;-73
2023/08/05 12:21:41;;;;;;;8.30;5.07;;;;;;;;;;5154651;27;20050;-75
2023/08/05 12:24:07;;;;;;;9.07;5.75;;;;;;;;;;5154647;27;20487;-73
2023/08/05 12:26:34;;;;;;;6.07;3.80;;;;;;;;;;5154507;27;20026;-74
2023/08/05 12:29:00;;;;;;;7.75;5.22;;;;;;;;;;5154383;27;20027;-72
2023/08/05 12:31:26;;;;;;;6.22;3.92;;;;;;;;;;5153939;27;20018;-71
2023/08/05 12:33:52;;;;;;;6.68;2.80;;;;;;;;;;5152297;27;20109;-73
2023/08/05 12:36:18;;;;;;;6.97;3.92;;;;;;;;;;5151778;27;20758;-73
2023/08/05 12:38:48;;;;;;;6.18;3.78;;;;;;;;;;5151507;27;20019;-72
2023/08/05 12:41:14;;;;;;;6.25;4.70;;;;;;;;;;5151509;27;20027;-73
2023/08/05 12:43:40;;;;;;;8.85;4.70;;;;;;;;;;5150754;27;20732;-73
2023/08/05 12:46:06;;;;;;;8.38;5.22;;;;;;;;;;5149187;27;20054;-72
2023/08/05 12:48:32;;;;;;;7.55;5.72;;;;;;;;;;5150692;27;20480;-73
2023/08/05 12:50:58;;;;;;;7.60;5.20;;;;;;;;;;5150603;27;20068;-73
2023/08/05 12:53:24;;;;;;;8.05;5.03;;;;;;;;;;5151494;27;20045;-73
2023/08/05 12:55:51;;;;;;;6.65;4.25;;;;;;;;;;5151897;27;20039;-72
2023/08/05 12:58:16;;;;;;;8.02;5.57;;;;;;;;;;5152540;27;20022;-71
2023/08/05 13:00:42;;;;;;;8.88;5.78;;;;;;;;;;5151520;27;20023;-73
2023/08/05 13:03:08;;;;;;;6.90;4.78;;;;;;;;;;5151935;27;20061;-72
2023/08/05 13:05:34;;;;;;;7.03;4.95;;;;;;;;;;5152016;27;20095;-72
2023/08/05 13:08:00;;;;;;;9.07;7.57;;;;;;;;;;5153514;27;20429;-72
2023/08/05 13:10:26;;;;;;;10.23;6.63;;;;;;;;;;5153351;27;20023;-72
2023/08/05 13:12:52;;;;;;;11.77;8.45;;;;;;;;;;5153343;27;20085;-72
2023/08/05 13:15:18;;;;;;;12.15;8.02;;;;;;;;;;5153241;27;20039;-73
2023/08/05 13:17:44;;;;;;;10.55;5.57;;;;;;;;;;5153578;27;20098;-73
2023/08/05 13:20:11;;;;;;;8.32;6.35;;;;;;;;;;5153746;27;20030;-75
2023/08/05 13:22:37;;;;;;;10.00;5.72;;;;;;;;;;5153513;27;20030;-75
2023/08/05 13:25:03;;;;;;;9.07;4.97;;;;;;;;;;5154567;27;20030;-74
2023/08/05 13:27:29;;;;;;;10.27;4.32;;;;;;;;;;5154096;27;20365;-74
2023/08/05 13:29:55;;;;;;;6.55;2.50;;;;;;;;;;5152680;27;20031;-75
2023/08/05 13:32:21;;;;;;;7.45;3.58;;;;;;;;;;5154277;27;20844;-75
2023/08/05 13:34:47;;;;;;;4.63;2.58;;;;;;;;;;5153215;27;20055;-73
2023/08/05 13:37:13;;;;;;;7.75;3.10;;;;;;;;;;5152986;27;20137;-75
2023/08/05 13:39:39;;;;;;;6.22;3.03;;;;;;;;;;5151726;27;20058;-76
2023/08/05 13:42:05;;;;;;;7.80;3.30;;;;;;;;;;5152094;27;20050;-73
2023/08/05 13:44:37;;;;;;;8.00;3.70;;;;;;;;;;5151171;27;20027;-73
2023/08/05 13:47:03;;;;;;;7.68;3.72;;;;;;;;;;5151348;27;20142;-74
2023/08/05 13:49:29;;;;;;;6.78;3.22;;;;;;;;;;5147267;27;20027;-74
2023/08/05 13:51:55;;;;;;;7.15;3.65;;;;;;;;;;5135484;27;20137;-73
2023/08/05 13:54:21;;;;;;;10.60;4.70;;;;;;;;;;5150044;27;20034;-74
2023/08/05 13:56:47;;;;;;;9.07;4.10;;;;;;;;;;5149755;27;20114;-76
2023/08/05 13:59:13;;;;;;;9.50;4.63;;;;;;;;;;5130341;27;20046;-75
2023/08/05 14:01:39;;;;;;;6.95;4.28;;;;;;;;;;5145951;27;20049;-73
2023/08/05 14:04:05;;;;;;;9.98;4.97;;;;;;;;;;5150930;27;20032;-72
2023/08/05 14:06:31;;;;;;;5.55;3.60;;;;;;;;;;5151160;27;20027;-74
2023/08/05 14:09:02;;;;;;;6.80;3.63;;;;;;;;;;5150957;27;20027;-72
2023/08/05 14:11:28;;;;;;;8.35;4.43;;;;;;;;;;5152704;27;20019;-74
2023/08/05 14:13:54;;;;;;;7.45;3.50;;;;;;;;;;5152386;27;20384;-74
2023/08/05 14:16:20;;;;;;;5.65;3.40;;;;;;;;;;5151529;27;20049;-75
2023/08/05 14:18:46;;;;;;;5.28;2.95;;;;;;;;;;5150936;27;20022;-74
2023/08/05 14:21:12;;;;;;;9.60;3.63;;;;;;;;;;5152232;27;20523;-73
2023/08/05 14:23:38;;;;;;;5.57;3.25;;;;;;;;;;5151798;27;20054;-72
2023/08/05 14:26:04;;;;;;;5.60;3.10;;;;;;;;;;5152398;27;20050;-73
2023/08/05 14:28:31;;;;;;;7.07;3.42;;;;;;;;;;5152249;27;20032;-74
2023/08/05 14:30:59;;;;;;;8.88;4.18;;;;;;;;;;5151414;27;20029;-73
2023/08/05 14:33:25;;;;;;;9.82;3.90;;;;;;;;;;5150384;27;20042;-72
2023/08/05 14:35:51;;;;;;;8.75;3.97;;;;;;;;;;5150484;27;20062;-73
2023/08/05 14:38:18;;;;;;;9.30;4.15;;;;;;;;;;5152362;27;20037;-74